Погода Шетпена 2 недели

Мангистауская область, Казахстан

13 - 25 июля
  • 13июля
    Сегодня
    +19°
    +28°
    Ясно и безоблачно
    ВремяПогодаТемператураВлажностьДавлениеВетер, м/сВероятность осадков
    02:00Ясно и безоблачно+22°C40 %734 мм4.9 м/с2 %
    05:00Ясно и безоблачно+19°C46 %734 мм4.1 м/с2 %
    08:00Ясно и безоблачно+22°C39 %734 мм5.3 м/с2 %
    11:00Ясно и безоблачно+26°C30 %734 мм9.3 м/с2 %
    14:00Ясно и безоблачно+27°C28 %734 мм9.3 м/с2 %
    17:00Ясно и безоблачно+27°C31 %733 мм9.6 м/с2 %
    20:00Ясно и безоблачно+25°C35 %733 мм8.7 м/с2 %
    23:00Ясно и безоблачно+22°C41 %733 мм5.7 м/с2 %
  • 14июля
    Воскресенье
    +19°
    +29°
    Небольшая облачность
    ВремяПогодаТемператураВлажностьДавлениеВетер, м/сВероятность осадков
    02:00Ясно и безоблачно+22°C51 %733 мм5.3 м/с2 %
    05:00Ясно и безоблачно+20°C68 %732 мм4.7 м/с2 %
    08:00Ясно и безоблачно+22°C65 %733 мм4.3 м/с2 %
    11:00Практически безоблачно+27°C40 %733 мм6.9 м/с4 %
    14:00Небольшая облачность+29°C32 %733 мм7.7 м/с7 %
    17:00Пасмурно, сплошная облачность+30°C33 %733 мм8.2 м/с6 %
    20:00Ясно и безоблачно+27°C45 %733 мм6.8 м/с2 %
    23:00Ясно и безоблачно+23°C60 %734 мм4.1 м/с2 %
  • 15июля
    Понедельник
    +21°
    +33°
    Ясно и безоблачно
    ВремяПогодаТемператураВлажностьДавлениеВетер, м/сВероятность осадков
    02:00Ясно и безоблачно+20°C78 %734 мм3.7 м/с2 %
    05:00Ясно и безоблачно+20°C73 %734 мм4.1 м/с2 %
    08:00Ясно и безоблачно+25°C72 %734 мм3.7 м/с2 %
    11:00Практически безоблачно+30°C46 %735 мм6.0 м/с2 %
    14:00Ясно и безоблачно+33°C30 %735 мм6.3 м/с7 %
    17:00Ясно и безоблачно+33°C30 %734 мм6.2 м/с2 %
    20:00Ясно и безоблачно+30°C36 %735 мм6.7 м/с2 %
    23:00Ясно и безоблачно+26°C51 %736 мм4.1 м/с2 %
  • 16июля
    Вторник
    +20°
    +35°
    Практически безоблачно
    ВремяПогодаТемператураВлажностьДавлениеВетер, м/сВероятность осадков
    02:00Ясно и безоблачно+23°C60 %735 мм2.5 м/с2 %
    05:00Ясно и безоблачно+22°C80 %735 мм4.0 м/с2 %
    08:00Ясно и безоблачно+26°C74 %736 мм3.3 м/с2 %
    11:00Ясно и безоблачно+32°C45 %737 мм4.3 м/с2 %
    14:00Практически безоблачно+34°C32 %737 мм4.1 м/с14 %
    17:00Практически безоблачно+35°C28 %736 мм4.5 м/с10 %
    20:00Ясно и безоблачно+31°C32 %736 мм6.5 м/с4 %
    23:00Ясно и безоблачно+26°C45 %737 мм3.9 м/с2 %
Мы используем cookies
Соглашаюсь